Orbital elements of COSMOS 1823 DEB
| Launched | 19 February 1987 |
| Flight ended | – |
| Launch site | Plesetsk Missile and Space Complex, Russia |
| Owner | Commonwealth of Independent States (former USSR) |
| NORAD ID | 18731 |
| Date fetched |
Epoch osculation |
Inc. [°] |
Ecc. | RA asc node [hr] |
Arg Peri. [°] |
Mean anom [°] |
Mean motion [rev/day] |
Abs. mag |
| Date fetched |
Epoch osculation |
Inc. [°] |
Ecc. | RA asc node [hr] |
Arg Peri. [°] |
Mean anom [°] |
Mean motion [rev/day] |
Abs. mag |
| 2026 May 01 17:56 | 2026 Apr 30 08:48:44 | 73.6254 | 0.00195 | 6.0771 | 219.8239 | 293.1136 | 12.44104 | – |
| 2026 Apr 30 17:56 | 2026 Apr 30 08:48:44 | 73.6254 | 0.00195 | 6.0771 | 219.8239 | 293.1136 | 12.44104 | – |
| 2026 Apr 29 17:57 | 2026 Apr 24 10:02:20 | 73.6245 | 0.00198 | 6.6112 | 228.7340 | 293.1136 | 12.44104 | – |
| 2026 Apr 28 17:56 | 2026 Apr 24 10:02:20 | 73.6245 | 0.00198 | 6.6112 | 228.7340 | 293.1136 | 12.44104 | – |
| 2026 Apr 27 17:58 | 2026 Apr 24 10:02:20 | 73.6245 | 0.00198 | 6.6112 | 228.7340 | 293.1136 | 12.44104 | – |
| 2026 Apr 26 17:58 | 2026 Apr 24 10:02:20 | 73.6245 | 0.00198 | 6.6112 | 228.7340 | 293.1136 | 12.44104 | – |
| 2026 Apr 25 17:58 | 2026 Apr 24 10:02:20 | 73.6245 | 0.00198 | 6.6112 | 228.7340 | 293.1136 | 12.44104 | – |
| 2026 Apr 24 17:59 | 2026 Apr 24 10:02:20 | 73.6245 | 0.00198 | 6.6112 | 228.7340 | 293.1136 | 12.44104 | – |
| 2026 Apr 23 17:57 | 2026 Apr 19 05:45:34 | 73.6242 | 0.00199 | 7.0761 | 236.1535 | 293.1136 | 12.44104 | – |
| 2026 Apr 22 17:57 | 2026 Apr 19 05:45:34 | 73.6242 | 0.00199 | 7.0761 | 236.1535 | 293.1136 | 12.44104 | – |
| 2026 Apr 21 17:57 | 2026 Apr 19 05:45:34 | 73.6242 | 0.00199 | 7.0761 | 236.1535 | 293.1136 | 12.44104 | – |
| 2026 Apr 20 17:57 | 2026 Apr 19 05:45:34 | 73.6242 | 0.00199 | 7.0761 | 236.1535 | 293.1136 | 12.44104 | – |
| 2026 Apr 19 17:58 | 2026 Apr 19 05:45:34 | 73.6242 | 0.00199 | 7.0761 | 236.1535 | 293.1136 | 12.44104 | – |
| 2026 Apr 18 17:56 | 2026 Apr 13 01:09:58 | 73.6239 | 0.00200 | 7.6320 | 244.7460 | 293.1136 | 12.44104 | – |
| 2026 Apr 16 17:57 | 2026 Apr 13 01:09:58 | 73.6239 | 0.00200 | 7.6320 | 244.7460 | 293.1136 | 12.44104 | – |
| 2026 Apr 14 17:57 | 2026 Apr 13 01:09:58 | 73.6239 | 0.00200 | 7.6320 | 244.7460 | 293.1136 | 12.44104 | – |
| 2026 Apr 13 17:57 | 2026 Apr 13 01:09:58 | 73.6239 | 0.00200 | 7.6320 | 244.7460 | 293.1136 | 12.44104 | – |
| 2026 Apr 12 17:57 | 2026 Apr 08 07:18:22 | 73.6243 | 0.00200 | 8.0580 | 251.1287 | 293.1136 | 12.44104 | – |
| 2026 Apr 11 17:57 | 2026 Apr 08 07:18:22 | 73.6243 | 0.00200 | 8.0580 | 251.1287 | 293.1136 | 12.44104 | – |
| 2026 Apr 10 17:58 | 2026 Apr 08 07:18:22 | 73.6243 | 0.00200 | 8.0580 | 251.1287 | 293.1136 | 12.44104 | – |
| 2026 Apr 09 18:01 | 2026 Apr 08 07:18:22 | 73.6243 | 0.00200 | 8.0580 | 251.1287 | 293.1136 | 12.44104 | – |
| 2026 Apr 08 17:57 | 2026 Apr 08 07:18:22 | 73.6243 | 0.00200 | 8.0580 | 251.1287 | 293.1136 | 12.44104 | – |
| 2026 Apr 07 17:57 | 2026 Apr 01 19:54:49 | 73.6251 | 0.00197 | 8.6393 | 259.4202 | 293.1136 | 12.44104 | – |
| 2026 Apr 06 17:57 | 2026 Apr 01 19:54:49 | 73.6251 | 0.00197 | 8.6393 | 259.4202 | 293.1136 | 12.44104 | – |
| 2026 Apr 05 17:56 | 2026 Apr 01 19:54:49 | 73.6251 | 0.00197 | 8.6393 | 259.4202 | 293.1136 | 12.44104 | – |
| 2026 Apr 04 17:57 | 2026 Apr 01 19:54:49 | 73.6251 | 0.00197 | 8.6393 | 259.4202 | 293.1136 | 12.44104 | – |